createdAt,value
2023-01-07T00:01:11.764Z,101310.38
2023-01-07T00:04:21.742Z,101308.13
2023-01-07T00:07:24.511Z,101320.06
2023-01-07T00:10:28.369Z,101316.72
2023-01-07T00:13:33.086Z,101321.75
2023-01-07T00:16:37.998Z,101319.16
2023-01-07T00:19:40.663Z,101318.84
2023-01-07T00:22:43.681Z,101322.19
2023-01-07T00:25:46.610Z,101325.44
2023-01-07T00:28:52.353Z,101322.31
2023-01-07T00:31:55.381Z,101320.63
2023-01-07T00:34:58.569Z,101321.97
2023-01-07T00:38:02.340Z,101320.50
2023-01-07T00:41:06.591Z,101327.88
2023-01-07T00:44:10.338Z,101322.72
2023-01-07T00:47:14.297Z,101328.00
2023-01-07T00:50:17.713Z,101325.28
2023-01-07T00:53:21.748Z,101320.91
2023-01-07T00:56:24.559Z,101322.38
2023-01-07T00:59:27.816Z,101327.53
2023-01-07T01:02:30.754Z,101327.06
2023-01-07T01:05:34.363Z,101335.81
2023-01-07T01:08:37.235Z,101331.31
2023-01-07T01:11:40.055Z,101329.19
2023-01-07T01:14:44.934Z,101329.56
2023-01-07T01:17:50.909Z,101322.84
2023-01-07T01:20:55.018Z,101329.00
2023-01-07T01:24:00.345Z,101330.91
2023-01-07T01:27:02.883Z,101324.19
2023-01-07T01:30:07.402Z,101325.22
2023-01-07T01:33:15.377Z,101332.59
2023-01-07T01:36:19.769Z,101329.66
2023-01-07T01:39:23.429Z,101328.66
2023-01-07T01:42:27.704Z,101324.94
2023-01-07T01:45:32.158Z,101319.31
2023-01-07T01:48:46.375Z,101314.94
2023-01-07T01:52:03.731Z,101315.19
2023-01-07T01:55:09.103Z,101321.25
2023-01-07T01:58:17.281Z,101312.25
2023-01-07T02:01:21.374Z,101307.53
2023-01-07T02:04:27.446Z,101308.75
2023-01-07T02:07:30.268Z,101297.06
2023-01-07T02:10:35.242Z,101295.91
2023-01-07T02:14:09.316Z,101292.09
2023-01-07T02:17:27.287Z,101284.66
2023-01-07T02:20:54.024Z,101287.00
2023-01-07T02:24:33.631Z,101280.72
2023-01-07T02:27:55.599Z,101276.59
2023-01-07T02:31:22.027Z,101276.16
2023-01-07T02:34:33.140Z,101285.91
2023-01-07T02:37:36.216Z,101275.59
2023-01-07T02:41:05.173Z,101282.78
2023-01-07T02:44:27.533Z,101282.56
2023-01-07T02:47:47.128Z,101292.62
2023-01-07T02:50:50.057Z,101279.16
2023-01-07T02:53:52.490Z,101287.63
2023-01-07T02:57:07.488Z,101285.94
2023-01-07T03:00:36.337Z,101280.06
2023-01-07T03:03:52.044Z,101279.34
2023-01-07T03:07:00.661Z,101284.16
2023-01-07T03:10:21.640Z,101282.88
2023-01-07T03:13:31.816Z,101286.78
2023-01-07T03:16:42.121Z,101280.63
2023-01-07T03:19:50.998Z,101277.44
2023-01-07T03:22:56.731Z,101275.53
2023-01-07T03:26:04.380Z,101272.94
2023-01-07T03:29:14.671Z,101271.19
2023-01-07T03:32:39.874Z,101275.19
2023-01-07T03:35:48.072Z,101271.06
2023-01-07T03:38:53.044Z,101266.81
2023-01-07T03:42:16.111Z,101265.03
2023-01-07T03:45:22.150Z,101265.28
2023-01-07T03:48:25.733Z,101261.81
2023-01-07T03:51:28.768Z,101268.13
2023-01-07T03:54:32.313Z,101265.84
2023-01-07T03:57:36.584Z,101261.88
2023-01-07T04:00:39.709Z,101257.16
2023-01-07T04:03:44.151Z,101263.06
2023-01-07T04:06:47.666Z,101260.00
2023-01-07T04:09:51.401Z,101263.34
2023-01-07T04:12:54.143Z,101264.59
2023-01-07T04:15:57.370Z,101261.66
2023-01-07T04:19:04.679Z,101261.03
2023-01-07T04:22:10.570Z,101267.06
2023-01-07T04:25:14.640Z,101263.47
2023-01-07T04:28:17.773Z,101268.50
2023-01-07T04:31:20.808Z,101264.25
2023-01-07T04:34:24.040Z,101266.56
2023-01-07T04:37:29.053Z,101269.53
2023-01-07T04:40:32.135Z,101273.50
2023-01-07T04:43:36.878Z,101270.91
2023-01-07T04:46:41.117Z,101269.00
2023-01-07T04:49:43.798Z,101270.78
2023-01-07T04:52:47.119Z,101268.00
2023-01-07T04:55:50.619Z,101273.91
2023-01-07T04:58:53.594Z,101271.59
2023-01-07T05:01:57.813Z,101268.88
2023-01-07T05:05:01.435Z,101268.88
2023-01-07T05:08:06.426Z,101265.44
2023-01-07T05:11:10.887Z,101267.50
2023-01-07T05:14:14.634Z,101265.19
2023-01-07T05:17:20.268Z,101267.09
2023-01-07T05:20:23.442Z,101273.03
2023-01-07T05:23:31.515Z,101267.09
2023-01-07T05:26:34.800Z,101274.81
2023-01-07T05:29:38.078Z,101266.34
2023-01-07T05:32:40.723Z,101271.59
2023-01-07T05:35:44.210Z,101270.31
2023-01-07T05:38:49.208Z,101270.72
2023-01-07T05:41:52.761Z,101273.53
2023-01-07T05:44:56.517Z,101278.94
2023-01-07T05:47:59.284Z,101283.31
2023-01-07T05:51:01.778Z,101277.00
2023-01-07T05:54:08.899Z,101284.72
2023-01-07T05:57:13.367Z,101289.84
2023-01-07T06:00:19.226Z,101283.31
2023-01-07T06:03:23.508Z,101282.41
2023-01-07T06:06:26.650Z,101293.44
2023-01-07T06:09:30.244Z,101293.19
2023-01-07T06:12:34.288Z,101298.59
2023-01-07T06:15:37.489Z,101294.34
2023-01-07T06:18:42.381Z,101285.47
2023-01-07T06:21:46.022Z,101287.28
2023-01-07T06:24:54.087Z,101290.63
2023-01-07T06:27:59.237Z,101279.97
2023-01-07T06:31:02.564Z,101270.84
2023-01-07T06:34:06.300Z,101281.50
2023-01-07T06:37:10.409Z,101268.16
2023-01-07T06:40:15.865Z,101273.53
2023-01-07T06:43:19.301Z,101277.28
2023-01-07T06:46:22.647Z,101278.16
2023-01-07T06:49:25.605Z,101278.69
2023-01-07T06:52:34.258Z,101273.81
2023-01-07T06:55:41.140Z,101267.63
2023-01-07T06:58:46.257Z,101271.22
2023-01-07T07:01:51.284Z,101276.59
2023-01-07T07:04:58.323Z,101280.47
2023-01-07T07:08:05.197Z,101288.69
2023-01-07T07:11:09.466Z,101286.94
2023-01-07T07:14:13.661Z,101283.88
2023-01-07T07:17:17.863Z,101278.56
2023-01-07T07:20:23.216Z,101278.50
2023-01-07T07:23:29.834Z,101280.31
2023-01-07T07:26:39.439Z,101283.94
2023-01-07T07:29:42.839Z,101291.09
2023-01-07T07:32:55.394Z,101293.09
2023-01-07T07:35:59.709Z,101283.28
2023-01-07T07:39:05.238Z,101275.38
2023-01-07T07:42:09.652Z,101275.94
2023-01-07T07:45:20.282Z,101283.81
2023-01-07T07:48:23.381Z,101291.41
2023-01-07T07:51:34.458Z,101292.78
2023-01-07T07:54:37.867Z,101292.59
2023-01-07T07:57:41.672Z,101283.75
2023-01-07T08:00:48.958Z,101287.72
2023-01-07T08:03:53.837Z,101280.03
2023-01-07T08:06:56.809Z,101277.19
2023-01-07T08:10:02.226Z,101283.09
2023-01-07T08:13:11.154Z,101276.94
2023-01-07T08:16:15.717Z,101275.03
2023-01-07T08:19:24.982Z,101273.50
2023-01-07T08:22:28.417Z,101261.81
2023-01-07T08:25:33.486Z,101263.38
2023-01-07T08:28:39.127Z,101260.66
2023-01-07T08:31:42.478Z,101256.22
2023-01-07T08:34:49.394Z,101270.97
2023-01-07T08:37:53.212Z,101263.44
2023-01-07T08:41:03.273Z,101265.47
2023-01-07T08:44:08.871Z,101256.63
2023-01-07T08:47:18.293Z,101256.69
2023-01-07T08:50:21.738Z,101261.00
2023-01-07T08:53:27.065Z,101260.13
2023-01-07T08:56:31.262Z,101264.44
2023-01-07T08:59:41.631Z,101254.75
2023-01-07T09:02:45.514Z,101251.44
2023-01-07T09:05:49.619Z,101257.94
2023-01-07T09:09:05.233Z,101257.88
2023-01-07T09:12:10.908Z,101258.81
2023-01-07T09:15:18.080Z,101253.59
2023-01-07T09:18:21.646Z,101251.50
2023-01-07T09:21:32.552Z,101255.00
2023-01-07T09:24:38.383Z,101255.81
2023-01-07T09:27:47.574Z,101253.13
2023-01-07T09:30:54.824Z,101243.13
2023-01-07T09:34:10.686Z,101247.37
2023-01-07T09:37:22.795Z,101237.69
2023-01-07T09:40:31.572Z,101233.16
2023-01-07T09:43:59.540Z,101232.31
2023-01-07T09:47:08.233Z,101223.97
2023-01-07T09:50:41.259Z,101220.91
2023-01-07T09:53:53.196Z,101222.72
2023-01-07T09:57:03.239Z,101216.22
2023-01-07T10:00:19.797Z,101213.56
2023-01-07T10:04:05.423Z,101208.91
2023-01-07T10:07:20.410Z,101207.31
2023-01-07T10:10:52.262Z,101198.56
2023-01-07T10:14:11.320Z,101198.31
2023-01-07T10:17:22.156Z,101196.03
2023-01-07T10:20:58.993Z,101185.09
2023-01-07T10:24:10.659Z,101190.44
2023-01-07T10:27:24.230Z,101180.81
2023-01-07T10:30:37.433Z,101191.06
2023-01-07T10:33:41.683Z,101186.66
2023-01-07T10:37:05.238Z,101180.97
2023-01-07T10:40:22.974Z,101184.34
2023-01-07T10:43:50.122Z,101177.44
2023-01-07T10:47:00.291Z,101173.91
2023-01-07T10:50:20.320Z,101174.88
2023-01-07T10:53:55.433Z,101169.19
2023-01-07T10:57:07.250Z,101170.16
2023-01-07T11:00:17.248Z,101164.72
2023-01-07T11:03:25.285Z,101156.84
2023-01-07T11:06:38.497Z,101157.31
2023-01-07T11:09:53.198Z,101146.81
2023-01-07T11:13:06.578Z,101141.75
2023-01-07T11:16:14.624Z,101146.63
2023-01-07T11:19:18.068Z,101138.19
2023-01-07T11:22:37.570Z,101143.38
2023-01-07T11:25:50.328Z,101135.44
2023-01-07T11:29:16.335Z,101137.00
2023-01-07T11:32:35.141Z,101133.66
2023-01-07T11:35:52.466Z,101128.69
2023-01-07T11:39:12.489Z,101121.37
2023-01-07T11:42:48.159Z,101124.13
2023-01-07T11:46:20.005Z,101124.72
2023-01-07T11:49:37.488Z,101118.28
2023-01-07T11:52:55.789Z,101107.09
2023-01-07T11:56:14.360Z,101098.63
2023-01-07T11:59:30.093Z,101096.25
2023-01-07T12:02:33.132Z,101087.72
2023-01-07T12:05:40.620Z,101086.00
2023-01-07T12:08:54.572Z,101081.53
2023-01-07T12:12:35.065Z,101075.38
2023-01-07T12:16:00.284Z,101080.44
2023-01-07T12:19:24.389Z,101069.16
2023-01-07T12:23:10.367Z,101070.06
2023-01-07T12:26:23.450Z,101061.28
2023-01-07T12:29:36.437Z,101060.25
2023-01-07T12:32:50.219Z,101061.22
2023-01-07T12:36:00.259Z,101047.69
2023-01-07T12:39:29.245Z,101049.06
2023-01-07T12:42:41.521Z,101044.34
2023-01-07T12:45:53.314Z,101046.19
2023-01-07T12:48:57.461Z,101042.94
2023-01-07T12:52:39.232Z,101042.69
2023-01-07T12:55:50.533Z,101044.34
2023-01-07T12:59:45.987Z,101043.37
2023-01-07T13:03:19.462Z,101039.06
2023-01-07T13:06:45.008Z,101028.62
2023-01-07T13:09:55.602Z,101030.41
2023-01-07T13:13:08.208Z,101027.75
2023-01-07T13:16:13.304Z,101027.75
2023-01-07T13:19:18.203Z,101023.41
2023-01-07T13:23:03.699Z,101023.47
2023-01-07T13:26:21.634Z,101023.84
2023-01-07T13:30:09.151Z,101028.06
2023-01-07T13:33:22.196Z,101019.47
2023-01-07T13:37:09.947Z,101023.72
2023-01-07T13:40:28.720Z,101018.44
2023-01-07T13:43:50.231Z,101022.00
2023-01-07T13:47:05.092Z,101022.06
2023-01-07T13:50:25.539Z,101015.00
2023-01-07T13:53:35.256Z,101021.75
2023-01-07T13:56:40.780Z,101027.59
2023-01-07T13:59:49.619Z,101019.03
2023-01-07T14:02:58.562Z,101027.37
2023-01-07T14:06:19.131Z,101028.12
2023-01-07T14:09:37.267Z,101024.94
2023-01-07T14:13:09.438Z,101028.31
2023-01-07T14:16:40.384Z,101026.53
2023-01-07T14:20:08.588Z,101019.56
2023-01-07T14:23:59.214Z,101029.28
2023-01-07T14:27:28.403Z,101034.97
2023-01-07T14:30:56.186Z,101029.28
2023-01-07T14:34:25.213Z,101035.56
2023-01-07T14:37:40.635Z,101029.13
2023-01-07T14:40:51.091Z,101019.81
2023-01-07T14:44:32.298Z,101027.28
2023-01-07T14:47:41.859Z,101022.66
2023-01-07T14:50:55.949Z,101028.84
2023-01-07T14:54:23.910Z,101030.03
2023-01-07T14:57:58.421Z,101028.03
2023-01-07T15:01:46.340Z,101020.03
2023-01-07T15:05:18.208Z,101027.31
2023-01-07T15:08:45.257Z,101025.22
2023-01-07T15:12:19.243Z,101026.09
2023-01-07T15:15:47.249Z,101026.91
2023-01-07T15:18:55.178Z,101023.66
2023-01-07T15:22:15.254Z,101026.84
2023-01-07T15:25:32.975Z,101028.41
2023-01-07T15:28:47.109Z,101021.78
2023-01-07T15:32:19.634Z,101026.34
2023-01-07T15:35:36.241Z,101021.34
2023-01-07T15:38:56.143Z,101032.84
2023-01-07T15:42:12.156Z,101034.16
2023-01-07T15:45:23.439Z,101040.56
2023-01-07T15:48:33.777Z,101038.28
2023-01-07T15:51:50.355Z,101043.06
2023-01-07T15:55:01.337Z,101037.53
2023-01-07T15:58:17.147Z,101040.22
2023-01-07T16:01:29.588Z,101039.97
2023-01-07T16:04:38.346Z,101040.37
2023-01-07T16:07:48.582Z,101039.12
2023-01-07T16:11:06.242Z,101042.09
2023-01-07T16:14:23.440Z,101046.59
2023-01-07T16:17:35.315Z,101048.88
2023-01-07T16:20:51.225Z,101043.41
2023-01-07T16:23:55.295Z,101040.31
2023-01-07T16:27:11.220Z,101048.13
2023-01-07T16:30:20.090Z,101054.25
2023-01-07T16:33:29.512Z,101047.03
2023-01-07T16:36:45.163Z,101054.72
2023-01-07T16:39:52.533Z,101058.13
2023-01-07T16:43:03.364Z,101058.91
2023-01-07T16:46:41.192Z,101057.37
2023-01-07T16:49:53.117Z,101056.12
2023-01-07T16:53:04.221Z,101065.34
2023-01-07T16:56:19.422Z,101064.50
2023-01-07T16:59:32.184Z,101066.25
2023-01-07T17:02:41.237Z,101062.38
2023-01-07T17:06:05.385Z,101068.22
2023-01-07T17:09:26.625Z,101071.50
2023-01-07T17:12:43.209Z,101068.84
2023-01-07T17:15:55.120Z,101062.47
2023-01-07T17:19:21.153Z,101064.97
2023-01-07T17:22:28.107Z,101068.06
2023-01-07T17:25:40.401Z,101070.03
2023-01-07T17:29:02.191Z,101077.00
2023-01-07T17:32:07.034Z,101072.13
2023-01-07T17:35:23.365Z,101075.50
2023-01-07T17:38:28.955Z,101076.50
2023-01-07T17:42:01.203Z,101079.38
2023-01-07T17:45:05.304Z,101079.47
2023-01-07T17:48:13.883Z,101080.28
2023-01-07T17:51:20.200Z,101080.69
2023-01-07T17:54:33.213Z,101081.69
2023-01-07T17:57:41.336Z,101077.59
2023-01-07T18:00:57.332Z,101087.22
2023-01-07T18:04:02.125Z,101086.34
2023-01-07T18:07:12.249Z,101093.22
2023-01-07T18:10:21.961Z,101094.37
2023-01-07T18:13:32.153Z,101085.81
2023-01-07T18:16:50.238Z,101089.41
2023-01-07T18:19:55.186Z,101092.97
2023-01-07T18:23:00.406Z,101093.88
2023-01-07T18:26:07.276Z,101088.78
2023-01-07T18:29:23.605Z,101084.69
2023-01-07T18:32:28.729Z,101090.16
2023-01-07T18:35:34.175Z,101083.19
2023-01-07T18:38:38.205Z,101075.62
2023-01-07T18:41:44.794Z,101083.75
2023-01-07T18:44:57.273Z,101084.28
2023-01-07T18:48:08.102Z,101082.59
2023-01-07T18:51:26.148Z,101088.56
2023-01-07T18:54:40.147Z,101095.44
2023-01-07T18:57:46.668Z,101092.25
2023-01-07T19:01:09.166Z,101095.72
2023-01-07T19:04:20.474Z,101097.31
2023-01-07T19:07:32.132Z,101091.34
2023-01-07T19:10:41.590Z,101085.97
2023-01-07T19:13:48.312Z,101084.37
2023-01-07T19:16:53.258Z,101082.78
2023-01-07T19:19:56.963Z,101080.91
2023-01-07T19:23:08.258Z,101079.19
2023-01-07T19:26:27.254Z,101077.59
2023-01-07T19:29:35.510Z,101076.78
2023-01-07T19:32:43.334Z,101071.81
2023-01-07T19:35:47.821Z,101075.19
2023-01-07T19:39:07.443Z,101077.69
2023-01-07T19:42:15.939Z,101072.59
2023-01-07T19:45:24.751Z,101071.72
2023-01-07T19:48:28.557Z,101073.50
2023-01-07T19:51:38.206Z,101081.37
2023-01-07T19:54:49.287Z,101075.28
2023-01-07T19:57:56.116Z,101073.59
2023-01-07T20:01:20.265Z,101067.63
2023-01-07T20:04:28.174Z,101066.91
2023-01-07T20:07:42.460Z,101069.50
2023-01-07T20:11:03.219Z,101067.53
2023-01-07T20:14:08.384Z,101071.09
2023-01-07T20:17:18.690Z,101060.75
2023-01-07T20:20:25.216Z,101058.06
2023-01-07T20:23:30.691Z,101059.03
2023-01-07T20:26:36.351Z,101059.03
2023-01-07T20:29:40.748Z,101060.66
2023-01-07T20:32:43.944Z,101050.37
2023-01-07T20:35:51.114Z,101046.19
2023-01-07T20:38:57.172Z,101037.72
2023-01-07T20:42:01.157Z,101034.22
2023-01-07T20:45:15.235Z,101037.53
2023-01-07T20:48:23.144Z,101036.81
2023-01-07T20:51:26.575Z,101027.97
2023-01-07T20:54:33.411Z,101031.56
2023-01-07T20:57:38.138Z,101031.56
2023-01-07T21:00:50.383Z,101028.97
2023-01-07T21:04:01.952Z,101032.44
2023-01-07T21:07:11.507Z,101029.94
2023-01-07T21:10:20.298Z,101033.53
2023-01-07T21:13:35.810Z,101038.69
2023-01-07T21:16:40.413Z,101043.16
2023-01-07T21:19:49.425Z,101043.97
2023-01-07T21:23:02.291Z,101035.31
2023-01-07T21:26:10.152Z,101035.31
2023-01-07T21:29:16.696Z,101032.72
2023-01-07T21:32:28.250Z,101029.34
2023-01-07T21:35:31.152Z,101030.13
2023-01-07T21:38:35.808Z,101025.84
2023-01-07T21:41:41.328Z,101018.00
2023-01-07T21:44:46.100Z,101023.34
2023-01-07T21:47:49.199Z,101021.66
2023-01-07T21:50:56.323Z,101017.19
2023-01-07T21:54:01.161Z,101014.59
2023-01-07T21:57:05.241Z,101015.50
2023-01-07T22:00:18.304Z,101015.41
2023-01-07T22:03:21.312Z,101001.66
2023-01-07T22:06:27.087Z,100998.88
2023-01-07T22:09:34.164Z,100999.78
2023-01-07T22:12:52.068Z,101000.66
2023-01-07T22:16:07.175Z,101003.25
2023-01-07T22:19:14.520Z,101001.56
2023-01-07T22:22:21.010Z,100995.50
2023-01-07T22:25:23.986Z,100998.16
2023-01-07T22:28:27.617Z,100995.84
2023-01-07T22:31:38.175Z,100988.34
2023-01-07T22:34:43.192Z,100991.47
2023-01-07T22:37:46.833Z,100986.19
2023-01-07T22:40:51.043Z,100976.75
2023-01-07T22:43:59.157Z,100980.94
2023-01-07T22:47:07.390Z,100965.31
2023-01-07T22:50:12.077Z,100963.69
2023-01-07T22:53:15.821Z,100973.16
2023-01-07T22:56:21.604Z,100961.91
2023-01-07T22:59:25.500Z,100972.37
2023-01-07T23:02:29.217Z,100971.38
2023-01-07T23:05:36.081Z,100967.09
2023-01-07T23:08:40.139Z,100968.87
2023-01-07T23:11:51.226Z,100959.22
2023-01-07T23:14:58.195Z,100951.47
2023-01-07T23:18:02.087Z,100948.97
2023-01-07T23:21:07.556Z,100949.78
2023-01-07T23:24:12.301Z,100941.09
2023-01-07T23:27:16.841Z,100941.03
2023-01-07T23:30:20.319Z,100938.44
2023-01-07T23:33:24.865Z,100936.66
2023-01-07T23:36:28.647Z,100940.12
2023-01-07T23:39:32.109Z,100939.22
2023-01-07T23:42:36.800Z,100934.94
2023-01-07T23:45:40.020Z,100935.75
2023-01-07T23:48:43.019Z,100934.06
2023-01-07T23:51:48.719Z,100936.72
2023-01-07T23:54:51.613Z,100932.44
2023-01-07T23:57:54.046Z,100938.59
